Maryland Line, MD (21105)

8:43 AM EDT on September 22, 2014 (GMT -0400)
Hilltop | Change Station
CLOSE
Current Station
Personal Weather Station
Location: New Freedom, PA
Elevation: 873 ft
Nearby Weather Stations

Elev 873 ft 39.72 °N, 76.67 °W | Updated 6 seconds ago

Clear
Clear
58.2 °F
Feels Like 58.2 °F
N
1.0
Wind Variable Wind from NW
Gusts 7.0 mph

Today
High -- | Low -- °F
--% Chance of Precip.
Yesterday
High -- | Low -- °F
Precip. -- in
6:54 AM 7:03 PM
Waning Crescent, 3% visible
Pressure 29.94 in
Visibility 10.0 miles
Clouds Clear
Dew Point 50 °F
Humidity 75%
Rainfall 0.00 in
Snow Depth Not available.
UV 1 out of 12
Pollen 4.70 out of 12
Air Quality Not available.
Flu Activity Not available.
METAR KTHV 221153Z AUTO 26005KT 10SM CLR 15/09 A2994 RMK AO2 SLP137 70021 T01500089 10178 20139 53033

More Conditions Fewer Conditions

Pressure 29.94 in
Visibility 10.0 miles
Clouds Clear
Dew Point 50 °F
Humidity 75%
Rainfall 0.00 in
Snow Depth Not available.
UV 1 out of 12
Pollen 4.70 out of 12
Air Quality Not available.
Flu Activity Not available.
METAR KTHV 221153Z AUTO 26005KT 10SM CLR 15/09 A2994 RMK AO2 SLP137 70021 T01500089 10178 20139 53033

More Conditions Fewer Conditions

10-Day Weather Forecast

Almanac

Astronomy

Sep. 22, 2014 Rise Set
Actual Time 6:54 AM EDT 7:03 PM EDT
Civil Twilight 6:27 AM EDT 7:30 PM EDT
Nautical Twilight 5:55 AM EDT 8:02 PM EDT
Astronomical Twilight 5:23 AM EDT 8:34 PM EDT
Moon 5:21 AM EDT 6:10 PM EDT
Length of Visible Light 13h 03m
Length of Day
12h 09m
Tomorrow will be 2m 35s shorter.
Waning Crescent, 3% of the Moon is Illuminated
Today
Waning Crescent
Sep 24
New
Oct 1
First Quarter
Oct 8
Full
Oct 15
Last Quarter

Today's Extremes

State Highs State Lows

Community

WunderPhotos

Upload Photos

1,755,419 photos uploaded!

Nearby

Snow Depth

Station Depth Elevation
No new snow has been reported.

Earthquake Activity

City Distance Mag. Time & Date
No recent earthquake activity has been reported nearby.
Minimum magnitude displayed is 2.5.

Coastal Water Temperatures

Place Temperature
Tolchester Beach, MD 72.0 °F
Baltimore, MD 75.0 °F

Nearby Weather Stations